Latest Weather Observations for Hobart

IDT60901

Issued at 10:11 pm EST Saturday 5 September 2015 (issued every 10 minutes, with the page automatically refreshed every 10 minutes)

About weather observations | Map of Hobart area stations | Latest observations for Hobart area | Other Formats
Station Details ID: 094029 Name: HOBART (ELLERSLIE ROAD) Lat: -42.89 Lon: 147.33 Height: 50.5 m
Data from the previous 72 hours. | See also: Recent months at Hobart
Date/Time
EST
Tmp

°C
App
Tmp
°C
Dew
Point
°C
Rel
Hum
%
Delta-T

°C
Wind Press
QNH
hPa
Press
MSL
hPa
Rain
since
9 am
mm
Dir
 
Spd
km/h
Gust
km/h
Spd
kts
Gust
kts
05/10:00pm 7.2 4.5 3.7 78 1.5 WSW 7 9 4 5 1025.4 1025.5 0.2
05/09:30pm 7.3 5.1 3.3 76 1.7 SW 4 9 2 5 1025.7 1025.8 0.2
05/09:00pm 7.4 5.9 2.8 72 1.9 CALM 0 0 0 0 1025.5 1025.6 0.2
05/08:30pm 7.4 4.6 3.4 76 1.7 SSW 7 11 4 6 1025.1 1025.2 0.2
05/08:00pm 7.2 4.1 3.7 78 1.5 WSW 9 13 5 7 1024.9 1025.0 0.2
05/07:30pm 7.2 4.1 3.4 77 1.6 SW 9 11 5 6 1024.6 1024.7 0.2
05/07:00pm 7.1 3.6 3.6 78 1.5 SW 11 13 6 7 1024.4 1024.5 0.2
05/06:30pm 7.0 2.7 3.4 78 1.5 SW 15 17 8 9 1024.1 1024.2 0.2
05/06:00pm 7.1 3.3 3.8 79 1.4 SW 13 17 7 9 1024.0 1024.1 0.2
05/05:30pm 7.2 3.1 4.2 81 1.3 SSW 15 20 8 11 1023.7 1023.8 0.2
05/05:00pm 7.7 4.3 4.2 78 1.5 SSW 11 17 6 9 1023.5 1023.6 0.2
05/04:30pm 7.8 3.9 3.6 75 1.8 S 13 19 7 10 1023.3 1023.4 0.2
05/04:00pm 7.7 3.5 3.7 76 1.7 SSE 15 20 8 11 1023.3 1023.4 0.2
05/03:30pm 7.8 4.1 4.6 80 1.4 SSE 13 20 7 11 1023.1 1023.2 0.2
05/03:00pm 8.0 3.2 4.6 79 1.5 SSE 19 26 10 14 1023.0 1023.1 0.0
05/02:30pm 8.2 4.1 4.3 76 1.7 SSE 15 24 8 13 1022.7 1022.8 0.0
05/02:00pm 8.0 4.0 4.8 80 1.4 SE 15 24 8 13 1022.5 1022.6 0.0
05/01:30pm 8.5 5.7 5.1 79 1.5 S 9 15 5 8 1022.6 1022.7 0.0
05/01:00pm 8.0 3.2 4.8 80 1.4 SSE 19 30 10 16 1022.7 1022.8 0.0
05/12:30pm 8.9 4.5 4.8 75 1.8 SE 17 24 9 13 1022.6 1022.7 0.0
05/12:00pm 8.5 3.1 4.6 76 1.7 SSE 22 32 12 17 1022.7 1022.8 0.0
05/11:30am 8.7 4.0 6.1 84 1.2 SE 20 28 11 15 1022.7 1022.8 0.0
05/11:00am 8.9 3.6 4.8 75 1.8 SSE 22 30 12 16 1022.5 1022.6 0.0
05/10:30am 10.1 4.6 4.0 66 2.7 SE 22 30 12 16 1022.2 1022.3 0.0
05/10:00am 10.4 5.7 3.3 61 3.1 SSE 17 22 9 12 1022.3 1022.4 0.0
05/09:30am 10.4 5.8 3.5 62 3.0 SSE 17 28 9 15 1022.2 1022.3 0.0
05/09:00am 9.6 4.6 3.4 65 2.7 S 19 28 10 15 1022.0 1022.1 0.0
05/08:30am 9.1 4.3 2.7 64 2.7 S 17 26 9 14 1021.7 1021.8 0.0
05/08:00am 8.8 4.4 2.6 65 2.6 SSW 15 20 8 11 1021.4 1021.5 0.0
05/07:30am 8.0 3.9 2.5 68 2.3 SSW 13 19 7 10 1021.0 1021.1 0.0
05/07:00am 7.4 3.3 2.3 70 2.1 SSW 13 19 7 10 1020.7 1020.8 0.0
05/06:30am 7.0 2.9 2.1 71 2.0 SSW 13 20 7 11 1020.2 1020.3 0.0
05/06:00am 7.2 3.7 1.5 67 2.3 SSE 9 13 5 7 1019.6 1019.7 0.0
05/05:30am 7.6 4.6 1.7 66 2.4 SSW 7 11 4 6 1019.1 1019.2 0.0
05/05:00am 7.4 3.1 1.2 65 2.5 S 13 19 7 10 1018.7 1018.8 0.0
05/04:30am 8.1 4.2 0.9 60 2.9 SSW 11 20 6 11 1018.2 1018.2 0.0
05/04:00am 8.8 4.8 0.3 55 3.4 WSW 11 17 6 9 1017.6 1017.6 0.0
05/03:30am 9.0 4.5 -0.1 53 3.6 W 13 20 7 11 1017.4 1017.4 0.0
05/03:06am 9.1 3.8 1.6 59 3.1 SW 19 41 10 22 1017.1 1017.1 0.0
05/03:00am 9.2 6.4 2.9 65 2.7 SSW 7 22 4 12 1017.1 1017.1 0.0
05/02:30am 9.0 6.7 5.5 79 1.6 SE 7 15 4 8 1017.4 1017.4 0.0
05/02:00am 9.0 6.3 5.5 79 1.6 ESE 9 13 5 7 1017.3 1017.3 0.0
05/01:30am 9.1 6.5 4.3 72 2.1 ESE 7 11 4 6 1017.3 1017.3 0.0
05/01:00am 8.9 7.5 3.8 70 2.2 CALM 0 0 0 0 1017.1 1017.1 0.0
05/12:30am 9.3 5.5 4.1 70 2.3 NNW 13 19 7 10 1016.9 1016.9 0.0
05/12:00am 9.1 5.3 3.8 69 2.3 NNW 13 20 7 11 1016.6 1016.6 0.0
 
Date/Time
EST
Tmp

°C
App
Tmp
°C
Dew
Point
°C
Rel
Hum
%
Delta-T

°C
Wind Press
QNH
hPa
Press
MSL
hPa
Rain
since
9 am
mm
Dir
 
Spd
km/h
Gust
km/h
Spd
kts
Gust
kts
04/11:30pm 9.5 4.8 3.2 65 2.7 NNW 17 24 9 13 1016.2 1016.2 0.0
04/11:00pm 9.7 5.0 3.2 64 2.8 NW 17 24 9 13 1016.2 1016.2 0.0
04/10:30pm 9.7 5.8 3.5 65 2.7 NW 13 24 7 13 1016.2 1016.2 0.0
04/10:00pm 10.0 5.7 3.1 62 3.0 NNW 15 22 8 12 1016.1 1016.1 0.0
04/09:30pm 10.2 5.1 3.0 61 3.1 NNW 19 30 10 16 1016.0 1016.0 0.0
04/09:00pm 10.5 5.2 2.9 59 3.3 NW 20 32 11 17 1015.7 1015.7 0.0
04/08:30pm 10.8 5.4 2.4 56 3.6 NNW 20 28 11 15 1015.7 1015.7 0.0
04/08:00pm 11.0 5.6 2.4 55 3.7 NNW 20 35 11 19 1015.7 1015.7 0.0
04/07:30pm 11.0 5.9 3.0 58 3.5 NNW 19 28 10 15 1015.6 1015.6 0.0
04/07:00pm 11.2 5.4 2.4 54 3.8 NNW 22 33 12 18 1015.2 1015.2 0.0
04/06:30pm 11.4 5.2 2.3 53 3.9 NNW 24 33 13 18 1015.2 1015.2 0.0
04/06:00pm 12.0 6.0 0.8 46 4.7 WNW 22 37 12 20 1015.0 1015.0 0.0
04/05:30pm 12.7 6.6 0.5 43 5.1 WNW 22 43 12 23 1014.8 1014.8 0.0
04/05:00pm 13.1 5.6 1.1 44 5.1 WNW 30 44 16 24 1014.5 1014.5 0.0
04/04:51pm 13.5 6.2 -0.2 39 5.7 WNW 28 56 15 30 1014.4 1014.4 0.0
04/04:30pm 13.4 7.0 3.1 49 4.6 NW 26 48 14 26 1014.3 1014.3 0.0
04/04:01pm 14.2 7.0 2.8 46 5.1 NW 30 48 16 26 1014.0 1014.0 0.0
04/04:00pm 14.3 7.5 2.9 46 5.1 NW 28 41 15 22 1014.1 1014.1 0.0
04/03:30pm 14.6 7.2 1.8 42 5.6 NW 30 46 16 25 1014.2 1014.2 0.0
04/03:00pm 15.2 7.2 1.8 40 5.9 NNW 33 59 18 32 1014.1 1014.1 0.0
04/02:30pm 14.8 6.4 1.5 40 5.8 NNW 35 56 19 30 1013.7 1013.7 0.0
04/02:27pm 14.7 6.2 1.0 39 5.9 NNW 35 56 19 30 1013.7 1013.7 0.0
04/02:00pm 14.6 7.1 1.2 40 5.8 NNW 30 46 16 25 1014.1 1014.1 0.0
04/01:46pm 14.7 6.9 1.4 40 5.8 NW 32 50 17 27 1014.4 1014.4 0.0
04/01:30pm 14.4 7.3 1.5 41 5.6 NW 28 44 15 24 1014.6 1014.6 0.0
04/01:22pm 14.7 7.2 1.3 40 5.8 NW 30 48 16 26 1014.7 1014.7 0.0
04/01:00pm 14.5 6.6 1.0 40 5.8 NNW 32 48 17 26 1014.9 1014.9 0.0
04/12:34pm 14.0 6.2 1.9 44 5.3 NNW 32 50 17 27 1015.2 1015.2 0.0
04/12:30pm 14.1 6.6 1.4 42 5.5 NNW 30 44 16 24 1015.4 1015.4 0.0
04/12:04pm 13.4 6.0 1.6 44 5.1 NNW 30 50 16 27 1015.7 1015.7 0.0
04/12:00pm 13.7 6.7 1.7 44 5.2 NNW 28 43 15 23 1015.7 1015.7 0.0
04/11:40am 12.3 5.3 1.8 48 4.5 NNW 28 46 15 25 1015.9 1015.9 0.0
04/11:30am 12.6 4.8 1.9 48 4.6 NNW 32 44 17 24 1016.0 1016.0 0.0
04/11:00am 12.1 3.7 1.5 48 4.5 NNW 35 50 19 27 1016.2 1016.2 0.0
04/10:30am 11.8 2.2 1.1 48 4.5 NNW 41 59 22 32 1016.3 1016.3 0.0
04/10:00am 11.7 3.2 0.9 47 4.5 NW 35 59 19 32 1016.4 1016.4 0.0
04/09:32am 11.6 4.4 0.8 47 4.5 NW 28 54 15 29 1016.8 1016.8 0.0
04/09:30am 11.5 4.7 1.0 48 4.4 NW 26 54 14 29 1016.7 1016.7 0.0
04/09:00am 10.4 5.2 0.3 49 4.1 NE 17 41 9 22 1016.9 1016.9 0.2
04/08:30am 8.9 5.2 -0.2 53 3.6 WNW 9 19 5 10 1017.6 1017.6 0.2
04/08:00am 8.3 3.8 -0.4 54 3.4 NE 13 22 7 12 1017.9 1017.9 0.2
04/07:30am 7.5 1.8 -0.8 55 3.2 NNE 19 35 10 19 1018.0 1018.0 0.2
04/07:00am 6.4 -0.3 -1.4 57 2.9 N 24 37 13 20 1017.9 1017.9 0.2
04/06:30am 6.2 -2.1 -2.0 56 3.0 NNW 32 43 17 23 1018.0 1018.0 0.2
04/06:00am 5.6 -2.0 -1.8 59 2.7 NW 28 48 15 26 1017.9 1017.9 0.2
04/05:52am 5.6 -2.3 -1.8 59 2.7 NNW 30 48 16 26 1017.9 1017.9 0.2
04/05:30am 5.6 -0.3 -2.1 57 2.8 NW 19 35 10 19 1018.0 1018.0 0.2
04/05:00am 5.6 -1.6 -2.1 57 2.8 NNW 26 37 14 20 1018.1 1018.1 0.2
04/04:30am 3.0 -1.2 -1.2 74 1.5 WSW 11 17 6 9 1018.4 1018.5 0.2
04/04:00am 3.1 -0.7 -0.7 76 1.4 WSW 9 17 5 9 1018.7 1018.8 0.2
04/03:30am 2.5 -1.3 -0.5 80 1.1 WSW 9 13 5 7 1018.9 1019.0 0.2
04/03:00am 2.7 -1.5 -0.6 79 1.2 WSW 11 15 6 8 1019.1 1019.2 0.2
04/02:30am 2.9 -1.3 -0.7 77 1.3 W 11 17 6 9 1019.4 1019.5 0.2
04/02:00am 3.0 -1.5 -0.6 77 1.3 WSW 13 17 7 9 1019.7 1019.8 0.2
04/01:30am 3.2 -0.5 -0.3 78 1.3 SW 9 13 5 7 1020.1 1020.2 0.2
04/01:00am 3.2 -1.3 -0.3 78 1.3 WSW 13 15 7 8 1020.2 1020.3 0.2
04/12:30am 3.2 -1.2 0.3 81 1.1 WSW 13 17 7 9 1020.3 1020.4 0.2
04/12:00am 3.3 -0.8 0.1 79 1.2 WSW 11 15 6 8 1020.5 1020.6 0.2
 
Date/Time
EST
Tmp

°C
App
Tmp
°C
Dew
Point
°C
Rel
Hum
%
Delta-T

°C
Wind Press
QNH
hPa
Press
MSL
hPa
Rain
since
9 am
mm
Dir
 
Spd
km/h
Gust
km/h
Spd
kts
Gust
kts
03/11:30pm 3.4 -0.2 0.5 81 1.1 WSW 9 11 5 6 1020.5 1020.6 0.2
03/11:00pm 3.8 0.5 0.4 78 1.3 W 7 13 4 7 1020.6 1020.7 0.2
03/10:30pm 3.7 0.5 0.8 81 1.1 W 7 13 4 7 1020.7 1020.8 0.2
03/10:00pm 4.3 0.3 0.6 77 1.4 W 11 15 6 8 1020.7 1020.8 0.2
03/09:30pm 4.7 0.7 0.5 74 1.6 W 11 13 6 7 1020.5 1020.6 0.2
03/09:00pm 4.8 0.0 0.4 73 1.7 W 15 19 8 10 1020.3 1020.4 0.2
03/08:30pm 5.1 1.8 0.4 71 1.8 WNW 7 11 4 6 1020.0 1020.1 0.2
03/08:00pm 6.0 1.5 0.0 65 2.3 WSW 13 19 7 10 1019.7 1019.8 0.2
03/07:30pm 7.0 2.5 -0.6 58 2.9 SSW 13 19 7 10 1019.5 1019.6 0.2
03/07:00pm 8.0 1.2 -1.8 50 3.7 SSE 24 32 13 17 1019.4 1019.5 0.2
03/06:30pm 7.5 2.3 0.1 59 2.9 SE 17 20 9 11 1019.2 1019.3 0.2
03/06:00pm 7.6 2.5 0.5 61 2.8 S 17 20 9 11 1018.7 1018.8 0.2
03/05:30pm 8.1 3.7 0.3 58 3.1 SSE 13 17 7 9 1018.1 1018.1 0.2
03/05:00pm 8.7 3.0 -0.8 51 3.7 S 19 24 10 13 1017.3 1017.3 0.2
03/04:30pm 9.6 3.2 -1.5 46 4.3 SSW 22 33 12 18 1016.9 1016.9 0.2
03/04:00pm 10.1 4.2 -1.1 45 4.4 SSW 20 32 11 17 1016.7 1016.7 0.2
03/03:30pm 11.1 6.4 -2.0 40 5.1 SSW 13 30 7 16 1016.4 1016.4 0.0
03/03:00pm 10.9 5.2 -0.9 44 4.7 SSW 19 30 10 16 1016.3 1016.3 0.0
03/02:30pm 11.2 5.2 -1.2 42 4.9 S 20 32 11 17 1016.0 1016.0 0.0
03/02:00pm 12.6 7.2 -1.0 39 5.5 WSW 17 28 9 15 1015.6 1015.6 0.0
03/01:30pm 11.8 5.9 -0.9 41 5.1 SSW 20 30 11 16 1015.9 1015.9 0.0
03/01:00pm 11.5 6.3 0.3 46 4.6 SSW 17 32 9 17 1015.6 1015.6 0.0
03/12:30pm 10.5 3.3 0.5 50 4.1 SSW 28 44 15 24 1015.7 1015.7 0.0
03/12:00pm 11.0 6.0 1.2 51 4.1 S 17 28 9 15 1015.7 1015.7 0.0
03/11:30am 10.2 3.7 0.4 50 4.0 SSW 24 35 13 19 1015.7 1015.7 0.0
03/11:00am 11.2 5.8 1.2 50 4.2 SW 19 28 10 15 1015.4 1015.4 0.0
03/10:30am 9.4 3.2 2.3 61 3.0 SW 24 35 13 19 1015.2 1015.2 0.0
03/10:00am 10.1 3.8 1.8 56 3.5 S 24 41 13 22 1014.9 1014.9 0.0
03/09:30am 9.6 5.1 2.3 60 3.1 SSW 15 28 8 15 1014.6 1014.6 0.0
03/09:00am 9.6 4.3 2.8 62 2.9 SSW 20 33 11 18 1014.3 1014.3 1.2
03/08:30am 8.8 2.0 2.9 66 2.5 SSW 28 39 15 21 1013.9 1013.9 1.2
03/08:00am 7.7 3.3 4.5 80 1.4 SSW 17 24 9 13 1013.4 1013.4 1.2
03/07:30am 7.6 1.7 4.1 78 1.5 SSW 24 43 13 23 1012.9 1012.9 1.0
03/07:00am 7.7 1.6 5.0 83 1.2 SSW 26 39 14 21 1011.9 1011.9 0.8
03/06:30am 8.4 3.5 5.3 81 1.4 SSW 20 30 11 16 1011.5 1011.5 0.8
03/06:00am 8.2 4.8 5.8 85 1.1 SSW 13 19 7 10 1010.7 1010.7 0.8
03/05:30am 8.6 6.9 5.7 82 1.3 S 4 15 2 8 1010.1 1010.2 0.8
03/05:00am 8.6 6.0 6.2 85 1.1 SSW 9 13 5 7 1009.9 1010.0 0.8
03/04:30am 8.7 4.1 6.3 85 1.1 SW 20 28 11 15 1009.4 1009.5 0.8
03/04:00am 8.4 4.9 7.1 91 0.6 S 15 22 8 12 1009.3 1009.4 0.8
03/03:30am 8.5 4.6 7.2 91 0.6 SSW 17 28 9 15 1009.0 1009.1 0.8
03/03:00am 8.6 6.6 7.1 90 0.7 S 7 13 4 7 1008.9 1009.0 0.8
03/02:30am 8.8 6.8 6.9 88 0.9 S 7 13 4 7 1008.9 1009.0 0.6
03/02:00am 8.7 4.7 6.5 86 1.0 SSW 17 26 9 14 1008.8 1008.9 0.6
03/01:30am 8.7 6.1 6.1 84 1.2 W 9 13 5 7 1008.7 1008.8 0.6
03/01:00am 8.7 5.7 6.1 84 1.2 W 11 15 6 8 1008.4 1008.5 0.6
03/12:30am 8.6 4.5 6.2 85 1.1 WNW 17 22 9 12 1008.4 1008.5 0.6
03/12:00am 8.5 5.1 6.1 85 1.1 NW 13 22 7 12 1008.6 1008.7 0.6
 
Date/Time
EST
Tmp

°C
App
Tmp
°C
Dew
Point
°C
Rel
Hum
%
Delta-T

°C
Wind Press
QNH
hPa
Press
MSL
hPa
Rain
since
9 am
mm
Dir
 
Spd
km/h
Gust
km/h
Spd
kts
Gust
kts
02/11:30pm 8.4 5.9 6.5 88 0.9 NW 9 19 5 10 1008.6 1008.7 0.6
02/11:00pm 8.5 6.0 6.6 88 0.9 NNW 9 11 5 6 1008.9 1009.0 0.6
02/10:30pm 8.5 6.4 6.8 89 0.8 NNW 7 11 4 6 1009.2 1009.3 0.6

Latest Capital City Observations: Canberra | Sydney | Melbourne | Brisbane | Adelaide | Perth | Hobart | Darwin

Other Formats:

Comma delimited format used in spreadsheet applications
http://www.bom.gov.au/fwo/IDT60901/IDT60901.94970.axf

JavaScript Object Notation format (JSON) in row-major order
http://www.bom.gov.au/fwo/IDT60901/IDT60901.94970.json